Terminal Aerodrome Forecast
Issued by NWS

Home | Current Version | Previous Version | Text Only | Print | Product List | Glossary On
Versions: 1 2 3 4 5 6 7 8 9 10 11 12 13 14 15
000
FTUS46 KSEW 241700
TAFHQM
TAF
KHQM 241734Z 2418/2518 21015G22KT P6SM VCSH FEW015 BKN045 OVC060
      TEMPO 2419/2423 3SM -SHRA BR BKN015 OVC045
     FM242300 22014KT P6SM VCSH SCT020 OVC045
     FM250300 22014KT P6SM BKN050=

USA.gov is the U.S. government's official web portal to all federal, state and local government web resources and services.